createdAt,value
2018-09-26T00:00:03.895Z,6.87
2018-09-26T00:03:14.968Z,6.87
2018-09-26T00:06:18.528Z,6.82
2018-09-26T00:09:22.121Z,6.85
2018-09-26T00:12:25.687Z,6.82
2018-09-26T00:15:29.305Z,6.82
2018-09-26T00:18:32.831Z,6.74
2018-09-26T00:21:36.482Z,6.66
2018-09-26T00:24:40.002Z,6.75
2018-09-26T00:27:43.668Z,6.81
2018-09-26T00:30:47.352Z,6.80
2018-09-26T00:33:50.964Z,6.71
2018-09-26T00:36:54.612Z,6.76
2018-09-26T00:39:58.124Z,6.87
2018-09-26T00:43:01.622Z,6.86
2018-09-26T00:46:05.331Z,6.86
2018-09-26T00:49:08.999Z,6.84
2018-09-26T00:52:12.567Z,6.78
2018-09-26T00:55:16.137Z,6.76
2018-09-26T00:58:19.671Z,6.88
2018-09-26T01:01:23.192Z,7.03
2018-09-26T01:04:26.831Z,6.90
2018-09-26T01:07:30.327Z,6.91
2018-09-26T01:10:33.848Z,6.83
2018-09-26T01:13:37.538Z,6.76
2018-09-26T01:16:41.188Z,6.72
2018-09-26T01:19:44.706Z,6.67
2018-09-26T01:22:48.214Z,6.83
2018-09-26T01:25:51.883Z,6.80
2018-09-26T01:28:55.352Z,6.91
2018-09-26T01:31:58.896Z,6.86
2018-09-26T01:35:02.879Z,7.04
2018-09-26T01:38:06.594Z,7.00
2018-09-26T01:41:10.143Z,6.99
2018-09-26T01:44:13.810Z,7.01
2018-09-26T01:47:17.307Z,7.02
2018-09-26T01:50:20.847Z,7.05
2018-09-26T01:53:24.382Z,7.07
2018-09-26T01:56:27.891Z,7.02
2018-09-26T01:59:31.433Z,7.04
2018-09-26T02:02:35.269Z,7.03
2018-09-26T02:05:38.856Z,7.07
2018-09-26T02:08:42.465Z,7.14
2018-09-26T02:11:46.009Z,7.53
2018-09-26T02:14:49.594Z,7.56
2018-09-26T02:17:53.128Z,7.96
2018-09-26T02:20:56.678Z,7.93
2018-09-26T02:24:00.389Z,7.90
2018-09-26T02:27:03.924Z,7.75
2018-09-26T02:30:07.707Z,7.88
2018-09-26T02:33:11.320Z,7.86
2018-09-26T02:36:15.613Z,7.88
2018-09-26T02:39:19.129Z,7.73
2018-09-26T02:42:22.737Z,7.76
2018-09-26T02:45:26.304Z,7.75
2018-09-26T02:48:35.076Z,7.91
2018-09-26T02:51:38.739Z,7.72
2018-09-26T02:54:42.234Z,7.64
2018-09-26T02:57:45.754Z,7.58
2018-09-26T03:00:49.407Z,7.59
2018-09-26T03:03:52.997Z,7.50
2018-09-26T03:06:56.598Z,7.75
2018-09-26T03:10:00.172Z,7.81
2018-09-26T03:13:03.720Z,7.89
2018-09-26T03:16:07.363Z,7.96
2018-09-26T03:19:10.906Z,7.89
2018-09-26T03:22:14.484Z,7.94
2018-09-26T03:25:18.109Z,7.98
2018-09-26T03:28:21.661Z,8.18
2018-09-26T03:31:25.238Z,8.02
2018-09-26T03:34:28.707Z,8.18
2018-09-26T03:37:32.310Z,8.20
2018-09-26T03:40:35.867Z,8.01
2018-09-26T03:43:39.440Z,7.90
2018-09-26T03:46:42.904Z,7.71
2018-09-26T03:49:46.447Z,7.79
2018-09-26T03:52:50.095Z,7.59
2018-09-26T03:55:53.640Z,7.46
2018-09-26T03:58:57.174Z,7.49
2018-09-26T04:02:00.764Z,7.62
2018-09-26T04:05:04.541Z,7.59
2018-09-26T04:08:08.049Z,7.59
2018-09-26T04:11:11.583Z,7.37
2018-09-26T04:14:15.140Z,7.35
2018-09-26T04:17:18.754Z,7.27
2018-09-26T04:20:22.392Z,7.28
2018-09-26T04:23:25.859Z,7.32
2018-09-26T04:26:29.628Z,7.34
2018-09-26T04:29:33.093Z,7.38
2018-09-26T04:32:36.899Z,7.47
2018-09-26T04:35:40.348Z,7.49
2018-09-26T04:38:44.789Z,7.59
2018-09-26T04:41:48.280Z,7.62
2018-09-26T04:44:51.811Z,7.72
2018-09-26T04:47:55.448Z,7.91
2018-09-26T04:50:59.046Z,7.96
2018-09-26T04:54:02.979Z,8.01
2018-09-26T04:57:06.556Z,7.97
2018-09-26T05:00:10.121Z,8.06
2018-09-26T05:03:13.687Z,8.17
2018-09-26T05:06:17.293Z,8.16
2018-09-26T05:09:20.794Z,8.14
2018-09-26T05:12:24.440Z,8.19
2018-09-26T05:15:28.135Z,8.13
2018-09-26T05:18:31.674Z,8.12
2018-09-26T05:21:35.268Z,8.08
2018-09-26T05:24:38.815Z,8.05
2018-09-26T05:27:42.394Z,8.01
2018-09-26T05:30:45.950Z,7.99
2018-09-26T05:33:50.794Z,7.98
2018-09-26T05:36:54.417Z,8.05
2018-09-26T05:39:57.995Z,8.27
2018-09-26T05:43:01.481Z,8.32
2018-09-26T05:46:05.046Z,8.27
2018-09-26T05:49:08.586Z,8.21
2018-09-26T05:52:12.316Z,8.20
2018-09-26T05:55:15.994Z,8.23
2018-09-26T05:58:19.479Z,8.18
2018-09-26T06:01:23.071Z,8.21
2018-09-26T06:04:26.576Z,8.27
2018-09-26T06:07:30.116Z,8.22
2018-09-26T06:10:33.745Z,8.33
2018-09-26T06:13:37.185Z,8.38
2018-09-26T06:16:40.820Z,8.37
2018-09-26T06:19:44.409Z,8.56
2018-09-26T06:22:47.934Z,8.55
2018-09-26T06:25:51.476Z,8.61
2018-09-26T06:28:54.987Z,8.77
2018-09-26T06:31:58.590Z,8.80
2018-09-26T06:35:02.198Z,8.94
2018-09-26T06:38:05.732Z,9.14
2018-09-26T06:41:09.275Z,9.08
2018-09-26T06:44:12.851Z,9.16
2018-09-26T06:47:16.355Z,9.25
2018-09-26T06:50:19.824Z,9.36
2018-09-26T06:53:23.444Z,9.42
2018-09-26T06:56:26.907Z,9.51
2018-09-26T06:59:30.490Z,9.55
2018-09-26T07:02:34.130Z,9.70
2018-09-26T07:05:37.779Z,9.94
2018-09-26T07:08:41.338Z,9.91
2018-09-26T07:11:44.866Z,9.88
2018-09-26T07:14:48.490Z,9.99
2018-09-26T07:17:52.232Z,10.11
2018-09-26T07:20:55.871Z,10.18
2018-09-26T07:23:59.362Z,10.22
2018-09-26T07:27:02.891Z,10.19
2018-09-26T07:30:06.545Z,10.29
2018-09-26T07:33:10.017Z,10.36
2018-09-26T07:36:13.562Z,10.43
2018-09-26T07:39:17.146Z,10.62
2018-09-26T07:42:20.647Z,10.55
2018-09-26T07:45:24.243Z,10.84
2018-09-26T07:48:27.743Z,10.65
2018-09-26T07:51:31.558Z,10.78
2018-09-26T07:54:35.086Z,10.93
2018-09-26T07:57:38.901Z,10.88
2018-09-26T08:00:42.418Z,11.00
2018-09-26T08:03:45.987Z,10.96
2018-09-26T08:06:49.817Z,10.87
2018-09-26T08:09:53.351Z,11.19
2018-09-26T08:12:57.028Z,11.48
2018-09-26T08:16:00.584Z,11.36
2018-09-26T08:19:04.149Z,11.52
2018-09-26T08:22:07.772Z,11.76
2018-09-26T08:25:11.433Z,11.84
2018-09-26T08:28:15.029Z,11.91
2018-09-26T08:31:18.627Z,12.12
2018-09-26T08:34:22.152Z,12.15
2018-09-26T08:37:25.631Z,12.33
2018-09-26T08:40:29.247Z,12.20
2018-09-26T08:43:32.942Z,12.28
2018-09-26T08:46:36.508Z,12.21
2018-09-26T08:49:40.132Z,12.25
2018-09-26T08:52:43.781Z,12.22
2018-09-26T08:55:47.423Z,12.36
2018-09-26T08:58:51.097Z,12.43
2018-09-26T09:01:54.642Z,12.61
2018-09-26T09:04:58.231Z,12.52
2018-09-26T09:08:02.348Z,12.69
2018-09-26T09:11:05.928Z,12.61
2018-09-26T09:14:09.572Z,12.59
2018-09-26T09:17:13.141Z,12.87
2018-09-26T09:20:16.871Z,12.81
2018-09-26T09:23:20.593Z,12.89
2018-09-26T09:26:24.242Z,12.90
2018-09-26T09:29:27.832Z,12.82
2018-09-26T09:32:31.541Z,13.09
2018-09-26T09:35:35.048Z,12.94
2018-09-26T09:38:38.626Z,13.14
2018-09-26T09:41:42.146Z,13.16
2018-09-26T09:44:45.664Z,13.65
2018-09-26T09:47:49.192Z,13.40
2018-09-26T09:50:52.736Z,13.60
2018-09-26T09:53:56.277Z,13.70
2018-09-26T09:56:59.820Z,13.36
2018-09-26T10:00:03.557Z,13.66
2018-09-26T10:03:07.376Z,13.67
2018-09-26T10:06:10.834Z,13.63
2018-09-26T10:09:14.342Z,13.65
2018-09-26T10:12:17.846Z,14.22
2018-09-26T10:15:21.406Z,13.99
2018-09-26T10:18:24.974Z,14.18
2018-09-26T10:21:28.468Z,14.10
2018-09-26T10:24:32.015Z,14.32
2018-09-26T10:27:35.563Z,14.23
2018-09-26T10:30:39.067Z,14.29
2018-09-26T10:33:42.633Z,14.33
2018-09-26T10:36:46.139Z,14.37
2018-09-26T10:39:49.699Z,14.27
2018-09-26T10:42:53.244Z,14.11
2018-09-26T10:45:56.862Z,13.91
2018-09-26T10:49:00.507Z,14.17
2018-09-26T10:52:03.978Z,13.97
2018-09-26T10:55:07.530Z,14.14
2018-09-26T10:58:11.152Z,14.20
2018-09-26T11:01:14.784Z,14.38
2018-09-26T11:04:18.360Z,14.45
2018-09-26T11:07:22.328Z,14.11
2018-09-26T11:10:25.984Z,14.42
2018-09-26T11:13:29.415Z,14.34
2018-09-26T11:16:32.945Z,14.20
2018-09-26T11:19:36.433Z,14.37
2018-09-26T11:22:40.038Z,14.49
2018-09-26T11:25:43.650Z,14.58
2018-09-26T11:28:47.320Z,14.68
2018-09-26T11:31:50.829Z,14.68
2018-09-26T11:34:54.403Z,14.89
2018-09-26T11:37:57.989Z,14.87
2018-09-26T11:41:01.509Z,15.06
2018-09-26T11:44:05.248Z,15.03
2018-09-26T11:47:09.117Z,15.28
2018-09-26T11:50:12.830Z,15.42
2018-09-26T11:53:16.379Z,15.32
2018-09-26T11:56:20.149Z,15.28
2018-09-26T11:59:23.681Z,15.42
2018-09-26T12:02:27.387Z,15.70
2018-09-26T12:05:30.845Z,15.57
2018-09-26T12:08:34.608Z,15.56
2018-09-26T12:11:38.261Z,15.68
2018-09-26T12:14:41.783Z,15.63
2018-09-26T12:17:45.319Z,15.74
2018-09-26T12:20:48.910Z,15.63
2018-09-26T12:23:52.401Z,15.54
2018-09-26T12:26:55.942Z,15.59
2018-09-26T12:29:59.400Z,15.67
2018-09-26T12:33:02.938Z,15.68
2018-09-26T12:36:06.459Z,15.58
2018-09-26T12:39:11.000Z,15.49
2018-09-26T12:42:14.583Z,15.58
2018-09-26T12:45:18.130Z,15.63
2018-09-26T12:48:21.776Z,15.70
2018-09-26T12:51:25.260Z,15.84
2018-09-26T12:54:28.822Z,15.98
2018-09-26T12:57:32.436Z,16.15
2018-09-26T13:00:35.992Z,16.18
2018-09-26T13:03:44.498Z,16.16
2018-09-26T13:06:48.134Z,16.34
2018-09-26T13:09:51.693Z,16.26
2018-09-26T13:12:55.270Z,16.24
2018-09-26T13:15:58.837Z,16.40
2018-09-26T13:19:02.465Z,16.29
2018-09-26T13:22:06.009Z,16.49
2018-09-26T13:25:09.602Z,16.48
2018-09-26T13:28:13.346Z,16.43
2018-09-26T13:31:16.995Z,16.54
2018-09-26T13:34:20.691Z,16.50
2018-09-26T13:37:24.229Z,16.54
2018-09-26T13:40:28.527Z,16.55
2018-09-26T13:43:32.080Z,16.51
2018-09-26T13:46:35.778Z,16.42
2018-09-26T13:49:39.466Z,16.43
2018-09-26T13:52:43.035Z,16.42
2018-09-26T13:55:46.527Z,16.41
2018-09-26T13:58:50.193Z,16.34
2018-09-26T14:01:53.692Z,16.32
2018-09-26T14:04:57.382Z,16.41
2018-09-26T14:08:01.280Z,16.35
2018-09-26T14:11:04.828Z,16.40
2018-09-26T14:14:08.389Z,16.40
2018-09-26T14:17:11.980Z,16.33
2018-09-26T14:20:15.642Z,16.39
2018-09-26T14:23:19.313Z,16.39
2018-09-26T14:26:22.980Z,16.39
2018-09-26T14:29:27.036Z,16.31
2018-09-26T14:32:31.607Z,16.43
2018-09-26T14:35:35.250Z,16.44
2018-09-26T14:38:39.049Z,16.47
2018-09-26T14:41:42.621Z,16.46
2018-09-26T14:44:46.250Z,16.48
2018-09-26T14:47:49.880Z,16.52
2018-09-26T14:50:53.511Z,16.60
2018-09-26T14:53:57.365Z,16.58
2018-09-26T14:57:00.926Z,16.44
2018-09-26T15:00:04.717Z,16.41
2018-09-26T15:03:08.215Z,16.29
2018-09-26T15:06:12.031Z,16.40
2018-09-26T15:09:15.625Z,16.33
2018-09-26T15:12:19.171Z,16.25
2018-09-26T15:15:22.768Z,16.40
2018-09-26T15:18:26.479Z,16.36
2018-09-26T15:21:30.124Z,16.29
2018-09-26T15:24:33.671Z,16.31
2018-09-26T15:27:37.224Z,16.32
2018-09-26T15:30:40.754Z,16.36
2018-09-26T15:33:44.476Z,16.35
2018-09-26T15:36:47.997Z,16.25
2018-09-26T15:39:51.615Z,16.26
2018-09-26T15:42:55.245Z,16.29
2018-09-26T15:45:58.791Z,16.43
2018-09-26T15:49:02.426Z,16.41
2018-09-26T15:52:06.044Z,16.46
2018-09-26T15:55:09.764Z,16.34
2018-09-26T15:58:13.473Z,16.49
2018-09-26T16:01:17.073Z,16.21
2018-09-26T16:04:20.833Z,16.22
2018-09-26T16:07:24.460Z,16.12
2018-09-26T16:10:28.038Z,16.14
2018-09-26T16:13:31.572Z,16.06
2018-09-26T16:16:35.239Z,16.11
2018-09-26T16:19:38.846Z,16.15
2018-09-26T16:22:42.559Z,16.06
2018-09-26T16:25:46.308Z,15.90
2018-09-26T16:28:49.864Z,15.86
2018-09-26T16:31:53.480Z,15.73
2018-09-26T16:34:57.064Z,15.83
2018-09-26T16:38:00.758Z,15.76
2018-09-26T16:41:04.554Z,15.56
2018-09-26T16:44:08.176Z,15.62
2018-09-26T16:47:11.769Z,15.70
2018-09-26T16:50:15.349Z,15.58
2018-09-26T16:53:18.997Z,15.57
2018-09-26T16:56:22.714Z,15.49
2018-09-26T16:59:26.202Z,15.39
2018-09-26T17:02:29.739Z,15.33
2018-09-26T17:05:33.457Z,15.37
2018-09-26T17:08:37.483Z,15.37
2018-09-26T17:11:41.109Z,15.41
2018-09-26T17:14:44.681Z,15.26
2018-09-26T17:17:48.243Z,15.24
2018-09-26T17:20:51.849Z,15.30
2018-09-26T17:23:55.420Z,15.18
2018-09-26T17:26:58.949Z,15.17
2018-09-26T17:30:02.596Z,14.95
2018-09-26T17:33:06.271Z,15.03
2018-09-26T17:36:09.969Z,15.15
2018-09-26T17:39:13.555Z,15.07
2018-09-26T17:42:17.197Z,15.03
2018-09-26T17:45:20.870Z,15.10
2018-09-26T17:48:24.449Z,15.25
2018-09-26T17:51:28.064Z,15.22
2018-09-26T17:54:31.936Z,15.19
2018-09-26T17:57:35.485Z,15.22
2018-09-26T18:00:39.143Z,15.18
2018-09-26T18:03:42.694Z,15.25
2018-09-26T18:06:46.245Z,15.23
2018-09-26T18:09:49.821Z,15.28
2018-09-26T18:12:53.377Z,15.42
2018-09-26T18:15:57.079Z,15.39
2018-09-26T18:19:00.768Z,15.21
2018-09-26T18:22:04.458Z,15.29
2018-09-26T18:25:08.018Z,15.37
2018-09-26T18:28:11.642Z,15.19
2018-09-26T18:31:15.272Z,15.14
2018-09-26T18:34:18.904Z,15.15
2018-09-26T18:37:22.882Z,15.25
2018-09-26T18:40:26.506Z,15.16
2018-09-26T18:43:30.044Z,15.10
2018-09-26T18:46:33.656Z,15.03
2018-09-26T18:49:37.416Z,15.09
2018-09-26T18:52:41.047Z,15.08
2018-09-26T18:55:44.680Z,15.06
2018-09-26T18:58:48.432Z,15.11
2018-09-26T19:01:51.933Z,15.09
2018-09-26T19:04:55.671Z,15.07
2018-09-26T19:07:59.047Z,14.94
2018-09-26T19:18:26.724Z,14.82
2018-09-26T19:21:30.400Z,14.79
2018-09-26T19:24:34.106Z,14.85
2018-09-26T19:27:37.629Z,14.86
2018-09-26T19:30:41.330Z,14.98
2018-09-26T19:33:45.022Z,14.92
2018-09-26T19:36:48.628Z,14.97
2018-09-26T19:39:52.248Z,15.07
2018-09-26T19:42:55.795Z,15.01
2018-09-26T19:45:59.442Z,15.03
2018-09-26T19:49:03.256Z,14.84
2018-09-26T19:52:06.871Z,14.83
2018-09-26T19:55:10.480Z,14.71
2018-09-26T19:58:14.143Z,14.79
2018-09-26T20:01:17.719Z,14.69
2018-09-26T20:04:21.379Z,14.60
2018-09-26T20:07:25.023Z,14.52
2018-09-26T20:10:28.700Z,14.49
2018-09-26T20:13:32.356Z,14.53
2018-09-26T20:16:35.853Z,14.40
2018-09-26T20:19:39.571Z,14.34
2018-09-26T20:22:43.234Z,14.45
2018-09-26T20:25:46.882Z,14.44
2018-09-26T20:28:50.701Z,14.58
2018-09-26T20:31:54.461Z,14.60
2018-09-26T20:34:58.162Z,14.59
2018-09-26T20:38:02.870Z,14.66
2018-09-26T20:41:06.457Z,14.72
2018-09-26T20:44:10.057Z,14.67
2018-09-26T20:47:13.735Z,14.69
2018-09-26T20:50:17.505Z,14.55
2018-09-26T20:53:21.169Z,14.52
2018-09-26T20:56:24.695Z,14.40
2018-09-26T20:59:28.411Z,14.32
2018-09-26T21:02:32.070Z,14.37
2018-09-26T21:05:35.833Z,14.25
2018-09-26T21:08:39.369Z,14.23
2018-09-26T21:11:43.078Z,14.28
2018-09-26T21:14:46.628Z,14.21
2018-09-26T21:17:50.293Z,14.04
2018-09-26T21:20:53.913Z,14.01
2018-09-26T21:23:57.478Z,14.01
2018-09-26T21:27:01.052Z,13.85
2018-09-26T21:30:04.984Z,13.90
2018-09-26T21:33:08.989Z,13.88
2018-09-26T21:36:12.512Z,13.95
2018-09-26T21:39:16.858Z,13.94
2018-09-26T21:42:20.406Z,13.86
2018-09-26T21:45:23.917Z,13.94
2018-09-26T21:48:27.531Z,13.99
2018-09-26T21:51:31.087Z,14.18
2018-09-26T21:54:34.598Z,14.21
2018-09-26T21:57:38.131Z,14.17
2018-09-26T22:00:46.864Z,14.22
2018-09-26T22:03:50.567Z,14.23
2018-09-26T22:06:54.210Z,14.22
2018-09-26T22:09:57.940Z,14.29
2018-09-26T22:13:01.525Z,14.26
2018-09-26T22:16:05.282Z,14.34
2018-09-26T22:19:08.858Z,14.32
2018-09-26T22:22:12.509Z,14.30
2018-09-26T22:25:16.454Z,14.29
2018-09-26T22:28:20.094Z,14.13
2018-09-26T22:31:23.790Z,14.13
2018-09-26T22:34:27.436Z,14.21
2018-09-26T22:37:31.069Z,14.11
2018-09-26T22:40:34.980Z,14.12
2018-09-26T22:43:38.652Z,14.12
2018-09-26T22:46:42.294Z,14.17
2018-09-26T22:49:45.879Z,14.17
2018-09-26T22:52:49.457Z,14.12
2018-09-26T22:55:53.177Z,14.04
2018-09-26T22:58:56.974Z,14.05
2018-09-26T23:02:00.582Z,14.03
2018-09-26T23:05:04.276Z,14.04
2018-09-26T23:08:07.857Z,14.04
2018-09-26T23:11:11.594Z,14.12
2018-09-26T23:14:15.252Z,14.10
2018-09-26T23:17:18.906Z,14.19
2018-09-26T23:20:22.608Z,14.12
2018-09-26T23:23:26.306Z,14.12
2018-09-26T23:26:29.996Z,14.14
2018-09-26T23:29:33.596Z,14.13
2018-09-26T23:32:37.196Z,14.10
2018-09-26T23:35:40.893Z,14.17
2018-09-26T23:38:44.557Z,14.07
2018-09-26T23:41:48.307Z,14.09
2018-09-26T23:44:52.015Z,14.13
2018-09-26T23:47:55.755Z,14.12
2018-09-26T23:50:59.466Z,14.05
2018-09-26T23:54:03.271Z,14.03
2018-09-26T23:57:06.907Z,14.12
